createdAt,value
2019-05-01T00:00:18.625Z,34.57
2019-05-01T00:01:21.687Z,37.90
2019-05-01T00:02:24.461Z,35.77
2019-05-01T00:03:27.130Z,35.43
2019-05-01T00:04:29.862Z,34.23
2019-05-01T00:05:32.587Z,36.10
2019-05-01T00:06:36.219Z,35.63
2019-05-01T00:07:38.948Z,36.90
2019-05-01T00:08:41.680Z,39.03
2019-05-01T00:09:44.408Z,34.53
2019-05-01T00:10:47.127Z,38.17
2019-05-01T00:11:49.891Z,33.00
2019-05-01T00:12:52.620Z,38.90
2019-05-01T00:13:55.347Z,37.57
2019-05-01T00:14:58.076Z,35.13
2019-05-01T00:16:00.800Z,35.67
2019-05-01T00:17:03.634Z,33.73
2019-05-01T00:18:06.372Z,35.53
2019-05-01T00:19:10.204Z,38.20
2019-05-01T00:20:12.928Z,38.00
2019-05-01T00:21:15.661Z,32.97
2019-05-01T00:22:18.755Z,36.83
2019-05-01T00:23:21.495Z,36.50
2019-05-01T00:24:24.216Z,35.90
2019-05-01T00:25:26.941Z,35.47
2019-05-01T00:26:29.780Z,36.30
2019-05-01T00:27:32.539Z,34.33
2019-05-01T00:28:35.267Z,40.33
2019-05-01T00:29:38.003Z,39.87
2019-05-01T00:30:40.731Z,39.33
2019-05-01T00:31:43.494Z,34.50
2019-05-01T00:32:46.608Z,38.40
2019-05-01T00:33:49.340Z,37.70
2019-05-01T00:34:52.073Z,37.63
2019-05-01T00:35:54.800Z,36.23
2019-05-01T00:36:57.688Z,38.97
2019-05-01T00:38:00.416Z,36.07
2019-05-01T00:39:04.508Z,36.53
2019-05-01T00:40:07.244Z,39.27
2019-05-01T00:41:09.967Z,40.60
2019-05-01T00:42:12.724Z,38.73
2019-05-01T00:43:15.828Z,35.83
2019-05-01T00:44:18.556Z,38.70
2019-05-01T00:45:21.286Z,37.20
2019-05-01T00:46:24.348Z,37.30
2019-05-01T00:47:27.427Z,35.87
2019-05-01T00:48:30.161Z,35.03
2019-05-01T00:49:32.884Z,37.20
2019-05-01T00:50:35.623Z,37.10
2019-05-01T00:51:38.352Z,38.20
2019-05-01T00:52:41.116Z,42.27
2019-05-01T00:53:43.972Z,35.40
2019-05-01T00:54:46.700Z,40.33
2019-05-01T00:55:49.428Z,39.37
2019-05-01T00:56:52.156Z,38.00
2019-05-01T00:57:54.920Z,41.00
2019-05-01T00:58:57.652Z,40.43
2019-05-01T01:00:00.688Z,36.07
2019-05-01T01:01:03.444Z,43.73
2019-05-01T01:02:06.173Z,36.70
2019-05-01T01:03:08.931Z,36.93
2019-05-01T01:04:11.656Z,38.07
2019-05-01T01:05:14.748Z,35.63
2019-05-01T01:06:17.471Z,35.73
2019-05-01T01:07:20.239Z,37.53
2019-05-01T01:08:22.964Z,42.13
2019-05-01T01:09:26.040Z,39.37
2019-05-01T01:10:29.323Z,38.20
2019-05-01T01:11:32.048Z,40.70
2019-05-01T01:12:34.871Z,39.20
2019-05-01T01:13:37.545Z,39.40
2019-05-01T01:14:40.261Z,40.50
2019-05-01T01:15:42.991Z,39.83
2019-05-01T01:16:45.864Z,41.70
2019-05-01T01:17:48.633Z,38.70
2019-05-01T01:18:51.360Z,41.53
2019-05-01T01:19:54.084Z,33.70
2019-05-01T01:20:56.808Z,38.40
2019-05-01T01:22:00.494Z,38.10
2019-05-01T01:23:03.330Z,41.67
2019-05-01T01:24:06.060Z,41.60
2019-05-01T01:25:09.356Z,42.53
2019-05-01T01:26:12.079Z,38.83
2019-05-01T01:27:15.134Z,38.50
2019-05-01T01:28:18.493Z,42.37
2019-05-01T01:29:21.217Z,38.70
2019-05-01T01:30:23.945Z,38.83
2019-05-01T01:31:26.919Z,38.67
2019-05-01T01:32:29.652Z,42.60
2019-05-01T01:33:32.422Z,38.60
2019-05-01T01:34:35.144Z,40.07
2019-05-01T01:35:38.200Z,37.17
2019-05-01T01:36:40.923Z,40.47
2019-05-01T01:37:43.819Z,39.50
2019-05-01T01:38:46.543Z,41.20
2019-05-01T01:39:49.275Z,39.03
2019-05-01T01:40:51.999Z,40.30
2019-05-01T01:41:54.727Z,40.20
2019-05-01T01:42:57.805Z,41.50
2019-05-01T01:44:00.533Z,41.87
2019-05-01T01:45:05.607Z,39.40
2019-05-01T01:46:08.332Z,41.47
2019-05-01T01:47:11.055Z,40.57
2019-05-01T01:48:13.821Z,40.67
2019-05-01T01:49:16.544Z,43.40
2019-05-01T01:50:19.272Z,38.23
2019-05-01T01:51:22.069Z,43.63
2019-05-01T01:52:24.798Z,42.40
2019-05-01T01:53:27.638Z,39.03
2019-05-01T01:54:30.370Z,40.80
2019-05-01T01:55:33.091Z,40.73
2019-05-01T01:56:35.816Z,41.00
2019-05-01T01:57:38.540Z,42.80
2019-05-01T01:58:41.308Z,40.80
2019-05-01T01:59:44.404Z,43.07
2019-05-01T02:00:47.257Z,42.80
2019-05-01T02:01:49.993Z,43.83
2019-05-01T02:02:52.712Z,45.63
2019-05-01T02:03:55.471Z,36.70
2019-05-01T02:04:58.196Z,38.43
2019-05-01T02:06:01.234Z,41.20
2019-05-01T02:07:03.967Z,41.40
2019-05-01T02:08:08.881Z,41.40
2019-05-01T02:09:11.073Z,40.70
2019-05-01T02:10:13.859Z,42.00
2019-05-01T02:11:16.620Z,40.73
2019-05-01T02:12:19.335Z,38.47
2019-05-01T02:13:22.059Z,43.87
2019-05-01T02:14:24.824Z,40.73
2019-05-01T02:15:27.550Z,42.67
2019-05-01T02:16:30.275Z,39.57
2019-05-01T02:17:32.999Z,41.60
2019-05-01T02:18:35.732Z,40.83
2019-05-01T02:19:38.616Z,41.60
2019-05-01T02:20:41.335Z,41.70
2019-05-01T02:21:44.092Z,39.20
2019-05-01T02:22:46.820Z,41.10
2019-05-01T02:23:49.588Z,39.87
2019-05-01T02:24:52.452Z,45.17
2019-05-01T02:25:55.171Z,44.20
2019-05-01T02:26:58.208Z,41.90
2019-05-01T02:28:00.931Z,45.37
2019-05-01T02:29:04.195Z,44.43
2019-05-01T02:30:06.926Z,43.63
2019-05-01T02:31:26.651Z,42.67
2019-05-01T02:32:14.660Z,39.80
2019-05-01T02:33:17.418Z,46.47
2019-05-01T02:34:20.251Z,42.60
2019-05-01T02:35:22.975Z,39.80
2019-05-01T02:36:26.344Z,41.17
2019-05-01T02:37:29.414Z,41.53
2019-05-01T02:38:32.480Z,45.23
2019-05-01T02:39:35.252Z,45.47
2019-05-01T02:40:52.092Z,43.07
2019-05-01T02:41:54.820Z,43.33
2019-05-01T02:42:57.636Z,41.27
2019-05-01T02:44:05.216Z,42.53
2019-05-01T02:45:07.940Z,39.57
2019-05-01T02:46:10.965Z,42.23
2019-05-01T02:47:17.085Z,38.90
2019-05-01T02:48:19.811Z,40.27
2019-05-01T02:49:31.726Z,42.80
2019-05-01T02:50:34.444Z,40.67
2019-05-01T02:51:37.525Z,45.47
2019-05-01T02:52:40.254Z,39.73
2019-05-01T02:53:43.246Z,40.10
2019-05-01T02:54:46.012Z,41.43
2019-05-01T02:55:48.809Z,42.40
2019-05-01T02:56:51.539Z,39.70
2019-05-01T02:57:54.269Z,48.63
2019-05-01T02:58:57.004Z,42.47
2019-05-01T02:59:59.906Z,44.87
2019-05-01T03:01:02.624Z,42.37
2019-05-01T03:02:05.716Z,43.63
2019-05-01T03:03:08.820Z,45.30
2019-05-01T03:04:12.109Z,41.00
2019-05-01T03:05:14.879Z,39.90
2019-05-01T03:06:17.873Z,42.03
2019-05-01T03:07:20.595Z,42.70
2019-05-01T03:08:23.316Z,39.00
2019-05-01T03:09:26.045Z,39.90
2019-05-01T03:10:28.800Z,38.37
2019-05-01T03:11:31.534Z,43.23
2019-05-01T03:12:34.821Z,38.10
2019-05-01T03:13:37.577Z,40.43
2019-05-01T03:14:42.253Z,44.40
2019-05-01T03:15:45.006Z,43.87
2019-05-01T03:16:48.567Z,41.53
2019-05-01T03:17:51.298Z,36.90
2019-05-01T03:18:54.025Z,40.53
2019-05-01T03:19:57.139Z,41.00
2019-05-01T03:20:59.866Z,38.50
2019-05-01T03:22:04.081Z,41.70
2019-05-01T03:23:06.805Z,40.97
2019-05-01T03:24:10.101Z,43.50
2019-05-01T03:25:12.874Z,42.90
2019-05-01T03:26:16.605Z,39.10
2019-05-01T03:27:19.502Z,39.30
2019-05-01T03:28:22.225Z,40.57
2019-05-01T03:29:24.948Z,41.40
2019-05-01T03:30:27.863Z,41.90
2019-05-01T03:31:30.581Z,38.30
2019-05-01T03:32:33.301Z,41.77
2019-05-01T03:33:36.027Z,39.83
2019-05-01T03:34:38.765Z,41.30
2019-05-01T03:35:41.517Z,42.83
2019-05-01T03:36:44.243Z,39.00
2019-05-01T03:37:46.970Z,40.80
2019-05-01T03:38:49.844Z,44.47
2019-05-01T03:39:52.830Z,41.53
2019-05-01T03:40:55.772Z,41.67
2019-05-01T03:41:58.499Z,39.03
2019-05-01T03:43:01.228Z,44.30
2019-05-01T03:44:04.169Z,42.33
2019-05-01T03:45:06.848Z,41.50
2019-05-01T03:46:09.612Z,43.70
2019-05-01T03:47:12.350Z,41.57
2019-05-01T03:48:15.076Z,40.13
2019-05-01T03:49:17.803Z,39.13
2019-05-01T03:50:20.567Z,40.37
2019-05-01T03:51:23.289Z,43.73
2019-05-01T03:52:26.193Z,42.90
2019-05-01T03:53:28.917Z,39.07
2019-05-01T03:54:32.661Z,41.07
2019-05-01T03:55:35.892Z,41.87
2019-05-01T03:56:38.948Z,38.80
2019-05-01T03:57:41.678Z,36.90
2019-05-01T03:58:44.401Z,42.00
2019-05-01T03:59:47.130Z,38.70
2019-05-01T04:00:49.880Z,43.47
2019-05-01T04:01:52.613Z,41.40
2019-05-01T04:02:55.341Z,41.57
2019-05-01T04:03:58.504Z,38.60
2019-05-01T04:05:01.216Z,38.30
2019-05-01T04:06:03.977Z,39.93
2019-05-01T04:07:07.368Z,41.00
2019-05-01T04:08:10.096Z,38.13
2019-05-01T04:09:12.820Z,38.63
2019-05-01T04:10:15.609Z,39.53
2019-05-01T04:11:18.484Z,39.20
2019-05-01T04:12:21.212Z,39.63
2019-05-01T04:13:23.940Z,43.03
2019-05-01T04:14:26.787Z,39.90
2019-05-01T04:15:29.512Z,39.57
2019-05-01T04:16:32.739Z,39.50
2019-05-01T04:17:35.485Z,40.70
2019-05-01T04:18:38.565Z,41.37
2019-05-01T04:19:41.289Z,39.20
2019-05-01T04:20:44.376Z,40.00
2019-05-01T04:21:47.143Z,40.23
2019-05-01T04:22:50.061Z,39.47
2019-05-01T04:23:52.732Z,38.40
2019-05-01T04:24:55.464Z,39.00
2019-05-01T04:25:58.359Z,40.33
2019-05-01T04:27:01.257Z,40.77
2019-05-01T04:28:03.977Z,41.40
2019-05-01T04:29:06.705Z,38.27
2019-05-01T04:30:09.446Z,39.70
2019-05-01T04:31:12.221Z,37.13
2019-05-01T04:32:14.929Z,38.80
2019-05-01T04:33:18.217Z,44.37
2019-05-01T04:34:20.976Z,37.33
2019-05-01T04:35:23.671Z,36.50
2019-05-01T04:36:26.434Z,45.90
2019-05-01T04:37:29.153Z,42.60
2019-05-01T04:38:31.880Z,40.73
2019-05-01T04:39:34.709Z,40.30
2019-05-01T04:40:37.432Z,41.83
2019-05-01T04:41:40.319Z,40.87
2019-05-01T04:42:43.049Z,38.53
2019-05-01T04:43:45.772Z,40.37
2019-05-01T04:44:48.502Z,40.87
2019-05-01T04:45:51.230Z,38.67
2019-05-01T04:46:53.992Z,36.97
2019-05-01T04:47:56.718Z,37.63
2019-05-01T04:49:00.289Z,39.60
2019-05-01T04:50:04.556Z,38.43
2019-05-01T04:51:07.280Z,41.13
2019-05-01T04:52:10.056Z,39.03
2019-05-01T04:53:12.784Z,37.90
2019-05-01T04:54:15.520Z,38.47
2019-05-01T04:55:18.316Z,39.43
2019-05-01T04:56:21.920Z,40.30
2019-05-01T04:57:24.683Z,38.43
2019-05-01T04:58:27.415Z,38.20
2019-05-01T04:59:30.993Z,40.93
2019-05-01T05:00:33.780Z,37.30
2019-05-01T05:01:36.505Z,41.80
2019-05-01T05:02:39.269Z,38.50
2019-05-01T05:03:42.163Z,38.50
2019-05-01T05:04:44.887Z,36.60
2019-05-01T05:05:48.607Z,39.67
2019-05-01T05:06:51.720Z,39.13
2019-05-01T05:07:54.475Z,39.07
2019-05-01T05:08:57.209Z,37.80
2019-05-01T05:09:59.931Z,38.30
2019-05-01T05:11:02.656Z,37.00
2019-05-01T05:12:05.860Z,36.07
2019-05-01T05:13:08.579Z,40.30
2019-05-01T05:14:11.321Z,42.50
2019-05-01T05:15:14.041Z,40.40
2019-05-01T05:16:16.768Z,37.83
2019-05-01T05:17:19.524Z,37.70
2019-05-01T05:18:22.614Z,40.80
2019-05-01T05:19:25.351Z,38.43
2019-05-01T05:20:28.077Z,39.07
2019-05-01T05:21:30.797Z,38.60
2019-05-01T05:22:33.569Z,36.40
2019-05-01T05:23:36.368Z,37.57
2019-05-01T05:24:39.095Z,41.83
2019-05-01T05:25:41.818Z,38.37
2019-05-01T05:26:46.088Z,38.97
2019-05-01T05:27:48.925Z,37.20
2019-05-01T05:28:51.651Z,37.87
2019-05-01T05:29:56.147Z,35.37
2019-05-01T05:30:58.877Z,37.77
2019-05-01T05:32:01.608Z,39.77
2019-05-01T05:33:17.497Z,37.93
2019-05-01T05:34:09.079Z,37.20
2019-05-01T05:35:11.805Z,39.30
2019-05-01T05:36:14.848Z,40.50
2019-05-01T05:37:17.592Z,36.40
2019-05-01T05:38:20.348Z,36.90
2019-05-01T05:39:23.379Z,35.97
2019-05-01T05:40:27.568Z,37.00
2019-05-01T05:41:30.651Z,36.07
2019-05-01T05:42:33.654Z,36.83
2019-05-01T05:43:36.415Z,36.40
2019-05-01T05:44:39.147Z,39.87
2019-05-01T05:45:41.877Z,39.40
2019-05-01T05:46:44.603Z,36.57
2019-05-01T05:47:47.360Z,35.67
2019-05-01T05:48:50.128Z,35.33
2019-05-01T05:49:52.852Z,38.57
2019-05-01T05:50:55.744Z,37.80
2019-05-01T05:51:58.941Z,35.90
2019-05-01T05:53:01.696Z,39.40
2019-05-01T05:54:05.121Z,34.57
2019-05-01T05:55:07.968Z,37.87
2019-05-01T05:56:16.768Z,35.97
2019-05-01T05:57:20.454Z,35.40
2019-05-01T05:58:24.024Z,36.60
2019-05-01T05:59:26.756Z,34.93
2019-05-01T06:00:30.647Z,39.50
2019-05-01T06:01:33.672Z,38.23
2019-05-01T06:02:36.520Z,33.90
2019-05-01T06:03:39.752Z,34.30
2019-05-01T06:04:42.479Z,38.23
2019-05-01T06:05:45.211Z,38.80
2019-05-01T06:06:47.942Z,36.30
2019-05-01T06:07:50.668Z,36.10
2019-05-01T06:08:53.431Z,37.33
2019-05-01T06:09:57.228Z,35.60
2019-05-01T06:11:00.169Z,37.80
2019-05-01T06:12:04.838Z,35.27
2019-05-01T06:13:07.327Z,37.00
2019-05-01T06:14:10.092Z,37.23
2019-05-01T06:15:12.823Z,35.20
2019-05-01T06:16:17.403Z,33.27
2019-05-01T06:17:23.673Z,33.97
2019-05-01T06:18:24.768Z,34.23
2019-05-01T06:19:27.483Z,36.57
2019-05-01T06:20:30.213Z,33.70
2019-05-01T06:21:34.628Z,35.63
2019-05-01T06:22:40.736Z,36.50
2019-05-01T06:23:42.027Z,33.67
2019-05-01T06:24:45.160Z,35.03
2019-05-01T06:25:47.887Z,35.80
2019-05-01T06:26:50.617Z,37.40
2019-05-01T06:27:53.339Z,36.53
2019-05-01T06:29:00.558Z,33.60
2019-05-01T06:30:00.455Z,39.50
2019-05-01T06:31:03.179Z,35.20
2019-05-01T06:32:06.225Z,36.37
2019-05-01T06:33:09.737Z,36.93
2019-05-01T06:34:13.335Z,37.70
2019-05-01T06:35:16.163Z,33.07
2019-05-01T06:36:18.887Z,35.67
2019-05-01T06:37:25.422Z,35.33
2019-05-01T06:38:26.951Z,35.37
2019-05-01T06:39:29.726Z,35.43
2019-05-01T06:40:32.620Z,38.00
2019-05-01T06:41:42.334Z,36.80
2019-05-01T06:42:40.333Z,33.63
2019-05-01T06:43:43.700Z,33.50
2019-05-01T06:44:46.624Z,32.83
2019-05-01T06:45:51.622Z,33.30
2019-05-01T06:46:58.126Z,37.90
2019-05-01T06:47:58.171Z,34.07
2019-05-01T06:49:00.892Z,35.10
2019-05-01T06:50:07.380Z,36.97
2019-05-01T06:51:12.922Z,32.20
2019-05-01T06:52:14.700Z,34.47
2019-05-01T06:53:17.424Z,35.57
2019-05-01T06:54:20.201Z,32.70
2019-05-01T06:55:27.144Z,33.10
2019-05-01T06:56:27.255Z,34.50
2019-05-01T06:57:29.988Z,34.43
2019-05-01T06:58:32.916Z,32.50
2019-05-01T06:59:35.785Z,33.93
2019-05-01T07:00:39.144Z,35.63
2019-05-01T07:01:42.868Z,32.23
2019-05-01T07:02:46.167Z,30.97
2019-05-01T07:04:02.855Z,31.93
2019-05-01T07:04:53.284Z,32.23
2019-05-01T07:05:56.316Z,33.00
2019-05-01T07:07:01.982Z,33.00
2019-05-01T07:08:04.976Z,31.20
2019-05-01T07:09:11.924Z,33.97
2019-05-01T07:10:12.659Z,33.53
2019-05-01T07:11:16.566Z,33.90
2019-05-01T07:12:24.046Z,32.03
2019-05-01T07:13:24.740Z,32.27
2019-05-01T07:14:27.462Z,33.07
2019-05-01T07:15:30.341Z,30.17
2019-05-01T07:16:37.553Z,32.33
2019-05-01T07:17:37.764Z,29.90
2019-05-01T07:18:40.484Z,30.57
2019-05-01T07:19:43.240Z,30.23
2019-05-01T07:20:47.359Z,34.03
2019-05-01T07:21:51.340Z,32.27
2019-05-01T07:22:54.059Z,30.37
2019-05-01T07:23:56.780Z,33.17
2019-05-01T07:25:04.193Z,32.50
2019-05-01T07:26:04.688Z,31.90
2019-05-01T07:27:07.541Z,30.13
2019-05-01T07:28:10.259Z,35.87
2019-05-01T07:29:12.983Z,30.53
2019-05-01T07:30:19.573Z,33.80
2019-05-01T07:31:20.250Z,31.30
2019-05-01T07:32:22.995Z,31.13
2019-05-01T07:33:25.703Z,32.80
2019-05-01T07:34:28.432Z,30.20
2019-05-01T07:35:32.939Z,34.00
2019-05-01T07:36:35.544Z,30.30
2019-05-01T07:37:38.268Z,33.40
2019-05-01T07:38:42.527Z,30.17
2019-05-01T07:39:50.016Z,30.30
2019-05-01T07:40:50.779Z,28.43
2019-05-01T07:41:53.499Z,29.13
2019-05-01T07:42:56.231Z,33.60
2019-05-01T07:43:59.622Z,29.20
2019-05-01T07:45:03.888Z,30.27
2019-05-01T07:46:07.975Z,32.27
2019-05-01T07:47:10.708Z,30.13
2019-05-01T07:48:14.068Z,30.10
2019-05-01T07:49:17.934Z,26.97
2019-05-01T07:50:24.266Z,32.67
2019-05-01T07:51:26.220Z,31.50
2019-05-01T07:52:29.064Z,30.70
2019-05-01T07:53:31.788Z,35.00
2019-05-01T07:54:37.834Z,31.07
2019-05-01T07:55:38.903Z,31.07
2019-05-01T07:56:41.924Z,30.83
2019-05-01T07:57:44.656Z,29.63
2019-05-01T07:58:51.582Z,31.70
2019-05-01T07:59:51.744Z,31.13
2019-05-01T08:00:54.504Z,31.23
2019-05-01T08:01:57.230Z,31.87
2019-05-01T08:03:02.626Z,29.17
2019-05-01T08:04:04.604Z,28.97
2019-05-01T08:05:09.908Z,29.27
2019-05-01T08:06:11.815Z,27.67
2019-05-01T08:07:16.068Z,30.27
2019-05-01T08:08:18.792Z,26.63
2019-05-01T08:09:21.640Z,28.00
2019-05-01T08:10:25.854Z,29.23
2019-05-01T08:11:28.739Z,26.90
2019-05-01T08:12:31.596Z,27.97
2019-05-01T08:13:35.008Z,28.93
2019-05-01T08:14:38.669Z,30.60
2019-05-01T08:15:41.743Z,29.77
2019-05-01T08:16:44.503Z,24.97
2019-05-01T08:17:48.831Z,28.87
2019-05-01T08:18:51.567Z,29.30
2019-05-01T08:19:54.313Z,27.53
2019-05-01T08:20:57.072Z,29.67
2019-05-01T08:22:01.688Z,28.67
2019-05-01T08:23:07.709Z,28.17
2019-05-01T08:24:08.897Z,27.20
2019-05-01T08:25:11.737Z,27.57
2019-05-01T08:26:14.499Z,28.10
2019-05-01T08:27:20.277Z,26.37
2019-05-01T08:28:21.567Z,26.87
2019-05-01T08:29:24.858Z,26.30
2019-05-01T08:30:27.580Z,31.77
2019-05-01T08:31:30.343Z,30.10
2019-05-01T08:32:33.675Z,26.93
2019-05-01T08:33:37.410Z,31.47
2019-05-01T08:34:48.809Z,27.60
2019-05-01T08:35:44.857Z,28.90
2019-05-01T08:36:48.443Z,28.50
2019-05-01T08:37:53.849Z,28.13
2019-05-01T08:38:55.575Z,29.30
2019-05-01T08:40:00.126Z,28.33
2019-05-01T08:41:02.863Z,29.40
2019-05-01T08:42:07.051Z,28.77
2019-05-01T08:43:13.708Z,27.13
2019-05-01T08:44:14.301Z,29.80
2019-05-01T08:45:17.020Z,28.23
2019-05-01T08:46:19.868Z,28.93
2019-05-01T08:47:25.808Z,26.07
2019-05-01T08:48:30.846Z,26.80
2019-05-01T08:49:31.317Z,25.10
2019-05-01T08:50:34.699Z,26.60
2019-05-01T08:51:37.432Z,25.60
2019-05-01T08:52:42.775Z,27.03
2019-05-01T08:53:44.541Z,27.03
2019-05-01T08:54:47.268Z,25.63
2019-05-01T08:55:49.990Z,25.83
2019-05-01T08:56:53.018Z,26.27
2019-05-01T08:57:57.088Z,27.53
2019-05-01T08:58:59.813Z,27.90
2019-05-01T09:00:02.708Z,27.60
2019-05-01T09:01:05.425Z,28.03
2019-05-01T09:02:09.762Z,28.13
2019-05-01T09:03:13.506Z,26.77
2019-05-01T09:04:18.808Z,25.93
2019-05-01T09:05:28.837Z,24.77
2019-05-01T09:06:34.450Z,26.80
2019-05-01T09:07:30.143Z,26.90
2019-05-01T09:08:33.337Z,24.50
2019-05-01T09:09:39.913Z,27.27
2019-05-01T09:10:40.501Z,25.73
2019-05-01T09:11:43.220Z,25.97
2019-05-01T09:12:46.950Z,27.33
2019-05-01T09:13:50.328Z,25.47
2019-05-01T09:14:53.042Z,25.70
2019-05-01T09:15:55.767Z,25.50
2019-05-01T09:16:58.492Z,28.33
2019-05-01T09:18:01.248Z,25.23
2019-05-01T09:19:03.980Z,25.27
2019-05-01T09:20:07.548Z,23.50
2019-05-01T09:21:10.271Z,26.63
2019-05-01T09:22:13.008Z,25.57
2019-05-01T09:23:16.153Z,26.33
2019-05-01T09:24:23.214Z,26.10
2019-05-01T09:25:23.364Z,25.00
2019-05-01T09:26:26.083Z,24.93
2019-05-01T09:27:29.663Z,25.33
2019-05-01T09:28:35.992Z,25.50
2019-05-01T09:29:37.539Z,24.90
2019-05-01T09:30:40.259Z,24.07
2019-05-01T09:31:43.653Z,24.37
2019-05-01T09:32:53.971Z,26.40
2019-05-01T09:33:51.084Z,24.30
2019-05-01T09:34:54.166Z,23.27
2019-05-01T09:35:56.880Z,23.33
2019-05-01T09:37:00.592Z,25.37
2019-05-01T09:38:03.355Z,25.50
2019-05-01T09:39:06.108Z,25.97
2019-05-01T09:40:09.383Z,28.77
2019-05-01T09:41:13.172Z,27.13
2019-05-01T09:42:22.886Z,25.50
2019-05-01T09:43:20.608Z,28.20
2019-05-01T09:44:23.336Z,23.00
2019-05-01T09:45:26.115Z,26.13
2019-05-01T09:46:28.845Z,25.10
2019-05-01T09:47:31.559Z,22.37
2019-05-01T09:48:34.308Z,23.13
2019-05-01T09:49:37.364Z,23.13
2019-05-01T09:50:41.036Z,25.43
2019-05-01T09:51:47.536Z,27.47
2019-05-01T09:52:48.103Z,27.00
2019-05-01T09:53:50.862Z,25.90
2019-05-01T09:54:53.583Z,24.70
2019-05-01T09:55:56.307Z,26.67
2019-05-01T09:56:59.158Z,26.30
2019-05-01T09:58:02.911Z,24.40
2019-05-01T09:59:05.848Z,23.43
2019-05-01T10:00:08.564Z,23.30
2019-05-01T10:01:11.288Z,24.70
2019-05-01T10:02:14.676Z,23.50
2019-05-01T10:03:18.177Z,24.73
2019-05-01T10:04:25.444Z,24.53
2019-05-01T10:05:28.982Z,23.00
2019-05-01T10:06:30.097Z,23.90
2019-05-01T10:07:32.948Z,23.33
2019-05-01T10:08:40.031Z,22.80
2019-05-01T10:09:40.044Z,24.83
2019-05-01T10:10:43.149Z,23.67
2019-05-01T10:11:46.228Z,23.20
2019-05-01T10:12:48.948Z,22.83
2019-05-01T10:13:53.744Z,26.77
2019-05-01T10:14:56.054Z,23.70
2019-05-01T10:15:58.908Z,23.40
2019-05-01T10:17:01.630Z,24.47
2019-05-01T10:18:04.703Z,23.83
2019-05-01T10:19:07.465Z,23.47
2019-05-01T10:20:10.183Z,23.93
2019-05-01T10:21:12.913Z,25.40
2019-05-01T10:22:15.637Z,23.83
2019-05-01T10:23:18.772Z,23.20
2019-05-01T10:24:21.500Z,23.87
2019-05-01T10:25:24.225Z,21.53
2019-05-01T10:26:26.940Z,23.10
2019-05-01T10:27:30.917Z,23.23
2019-05-01T10:28:34.364Z,23.23
2019-05-01T10:29:37.098Z,21.90
2019-05-01T10:30:39.826Z,23.37
2019-05-01T10:31:46.277Z,23.40
2019-05-01T10:32:47.152Z,23.17
2019-05-01T10:33:49.920Z,23.63
2019-05-01T10:34:52.768Z,23.27
2019-05-01T10:35:55.489Z,21.90
2019-05-01T10:36:58.583Z,23.13
2019-05-01T10:38:04.767Z,25.57
2019-05-01T10:39:07.393Z,20.90
2019-05-01T10:40:10.120Z,21.47
2019-05-01T10:41:12.839Z,21.83
2019-05-01T10:42:15.576Z,22.83
2019-05-01T10:43:18.589Z,22.87
2019-05-01T10:44:22.356Z,24.50
2019-05-01T10:45:25.082Z,22.27
2019-05-01T10:46:27.799Z,21.67
2019-05-01T10:47:30.524Z,22.23
2019-05-01T10:48:33.854Z,22.73
2019-05-01T10:49:36.578Z,22.70
2019-05-01T10:50:39.298Z,24.90
2019-05-01T10:51:42.015Z,23.10
2019-05-01T10:52:44.746Z,22.20
2019-05-01T10:53:47.481Z,22.10
2019-05-01T10:54:50.222Z,23.73
2019-05-01T10:55:53.284Z,24.03
2019-05-01T10:56:58.806Z,23.77
2019-05-01T10:58:03.131Z,21.77
2019-05-01T10:59:04.732Z,21.17
2019-05-01T11:00:07.724Z,22.03
2019-05-01T11:01:10.440Z,22.10
2019-05-01T11:02:13.168Z,21.00
2019-05-01T11:03:15.895Z,21.00
2019-05-01T11:04:18.652Z,22.00
2019-05-01T11:05:21.384Z,20.83
2019-05-01T11:06:24.107Z,20.30
2019-05-01T11:07:26.832Z,23.67
2019-05-01T11:08:29.555Z,20.57
2019-05-01T11:09:32.317Z,22.50
2019-05-01T11:10:35.504Z,19.77
2019-05-01T11:11:38.227Z,21.57
2019-05-01T11:12:40.947Z,19.80
2019-05-01T11:13:43.677Z,22.97
2019-05-01T11:14:46.434Z,22.30
2019-05-01T11:15:49.156Z,23.10
2019-05-01T11:16:51.879Z,20.27
2019-05-01T11:17:54.621Z,20.27
2019-05-01T11:18:57.319Z,23.50
2019-05-01T11:20:00.081Z,21.23
2019-05-01T11:21:03.464Z,21.43
2019-05-01T11:22:06.184Z,20.40
2019-05-01T11:23:08.907Z,21.67
2019-05-01T11:24:11.633Z,21.90
2019-05-01T11:25:14.388Z,22.93
2019-05-01T11:26:17.113Z,22.40
2019-05-01T11:27:19.832Z,21.43
2019-05-01T11:28:22.559Z,18.73
2019-05-01T11:29:25.278Z,21.13
2019-05-01T11:30:28.044Z,20.63
2019-05-01T11:31:30.764Z,20.33
2019-05-01T11:32:33.490Z,18.83
2019-05-01T11:33:36.213Z,20.83
2019-05-01T11:34:39.325Z,20.83
2019-05-01T11:35:42.050Z,19.90
2019-05-01T11:36:44.777Z,21.83
2019-05-01T11:37:47.488Z,21.07
2019-05-01T11:38:50.221Z,20.20
2019-05-01T11:39:53.100Z,20.97
2019-05-01T11:40:55.823Z,19.60
2019-05-01T11:41:59.508Z,20.63
2019-05-01T11:43:02.780Z,23.00
2019-05-01T11:44:05.643Z,20.00
2019-05-01T11:45:08.872Z,21.70
2019-05-01T11:46:11.724Z,20.40
2019-05-01T11:47:14.447Z,19.90
2019-05-01T11:48:17.167Z,21.27
2019-05-01T11:49:19.897Z,21.27
2019-05-01T11:50:22.656Z,20.43
2019-05-01T11:51:25.376Z,19.60
2019-05-01T11:52:28.099Z,20.33
2019-05-01T11:53:30.818Z,21.63
2019-05-01T11:54:33.544Z,21.30
2019-05-01T11:55:36.471Z,19.77
2019-05-01T11:56:39.184Z,20.90
2019-05-01T11:57:41.908Z,20.30
2019-05-01T11:58:44.645Z,18.93
2019-05-01T11:59:47.365Z,19.17
2019-05-01T12:00:50.780Z,18.23
2019-05-01T12:01:53.516Z,18.30
2019-05-01T12:02:56.250Z,21.77
2019-05-01T12:03:58.981Z,18.50
2019-05-01T12:05:02.159Z,21.10
2019-05-01T12:06:04.888Z,17.90
2019-05-01T12:07:07.607Z,19.60
2019-05-01T12:08:10.344Z,19.00
2019-05-01T12:09:13.188Z,21.10
2019-05-01T12:10:15.948Z,18.63
2019-05-01T12:11:18.676Z,19.70
2019-05-01T12:12:21.392Z,18.47
2019-05-01T12:13:24.187Z,19.50
2019-05-01T12:14:26.908Z,20.30
2019-05-01T12:15:29.672Z,21.27
2019-05-01T12:16:32.395Z,21.13
2019-05-01T12:17:35.124Z,19.83
2019-05-01T12:18:37.857Z,19.67
2019-05-01T12:19:40.573Z,22.00
2019-05-01T12:20:43.339Z,18.53
2019-05-01T12:21:46.064Z,18.70
2019-05-01T12:22:51.397Z,21.23
2019-05-01T12:23:53.130Z,19.23
2019-05-01T12:24:55.853Z,19.30
2019-05-01T12:25:58.734Z,19.00
2019-05-01T12:27:01.460Z,19.20
2019-05-01T12:28:04.176Z,19.50
2019-05-01T12:29:06.891Z,19.33
2019-05-01T12:30:09.615Z,20.63
2019-05-01T12:31:12.367Z,19.30
2019-05-01T12:32:16.028Z,19.77
2019-05-01T12:33:18.751Z,19.63
2019-05-01T12:34:21.477Z,20.40
2019-05-01T12:35:24.219Z,18.70
2019-05-01T12:36:36.004Z,20.63
2019-05-01T12:37:31.315Z,18.27
2019-05-01T12:38:34.031Z,18.57
2019-05-01T12:39:36.759Z,18.33
2019-05-01T12:40:40.350Z,18.20
2019-05-01T12:41:43.104Z,19.87
2019-05-01T12:42:45.832Z,19.70
2019-05-01T12:43:48.555Z,17.17
2019-05-01T12:44:51.275Z,18.27
2019-05-01T12:45:54.003Z,19.07
2019-05-01T12:46:56.761Z,18.53
2019-05-01T12:47:59.523Z,18.23
2019-05-01T12:49:02.241Z,19.00
2019-05-01T12:50:07.306Z,19.53
2019-05-01T12:51:10.038Z,17.30
2019-05-01T12:52:12.797Z,17.63
2019-05-01T12:53:15.524Z,18.17
2019-05-01T12:54:18.816Z,19.17
2019-05-01T12:55:21.535Z,19.43
2019-05-01T12:56:24.628Z,18.10
2019-05-01T12:57:27.349Z,20.20
2019-05-01T12:58:30.226Z,18.60
2019-05-01T12:59:32.921Z,18.63
2019-05-01T13:00:43.409Z,17.90
2019-05-01T13:01:46.167Z,17.60
2019-05-01T13:02:48.884Z,17.60
2019-05-01T13:03:51.612Z,20.07
2019-05-01T13:04:54.333Z,19.67
2019-05-01T13:05:57.053Z,17.43
2019-05-01T13:06:59.808Z,20.90
2019-05-01T13:08:02.595Z,19.40
2019-05-01T13:09:07.087Z,18.50
2019-05-01T13:10:10.335Z,18.70
2019-05-01T13:11:13.059Z,17.60
2019-05-01T13:12:15.831Z,18.57
2019-05-01T13:13:18.554Z,18.30
2019-05-01T13:14:21.272Z,17.93
2019-05-01T13:15:24.350Z,17.80
2019-05-01T13:16:27.071Z,17.60
2019-05-01T13:17:29.841Z,17.43
2019-05-01T13:18:33.447Z,19.33
2019-05-01T13:19:36.159Z,17.83
2019-05-01T13:20:38.880Z,19.00
2019-05-01T13:21:41.600Z,18.30
2019-05-01T13:22:44.364Z,19.20
2019-05-01T13:23:47.083Z,17.50
2019-05-01T13:24:49.815Z,17.00
2019-05-01T13:25:52.527Z,17.87
2019-05-01T13:26:55.283Z,18.07
2019-05-01T13:27:58.012Z,17.87
2019-05-01T13:29:00.727Z,18.50
2019-05-01T13:30:06.707Z,17.23
2019-05-01T13:31:09.524Z,17.33
2019-05-01T13:32:12.264Z,17.03